Time;durP1;ratioP1;P1;durP2;ratioP2;P2;SDS_P1;SDS_P2;PMS_P1;PMS_P2;Temp;Humidity;BMP_temperature;BMP_pressure;BME280_temperature;BME280_humidity;BME280_pressure;Samples;Min_cycle;Max_cycle;Signal;HPM_P1;HPM_P2
2022/01/15 00:02:24;;;;;;;6.30;5.70;;;15.50;56.40;16.40;102433.00;;;;5030268;28;20174;-48
2022/01/15 00:04:50;;;;;;;10.97;5.77;;;15.50;56.20;16.40;102425.00;;;;5029731;28;20178;-50
2022/01/15 00:07:16;;;;;;;5.47;5.07;;;15.50;56.30;16.40;102449.00;;;;5029695;28;20253;-50
2022/01/15 00:09:44;;;;;;;6.10;5.50;;;15.50;56.40;16.40;102428.00;;;;5028239;28;20183;-48
2022/01/15 00:12:10;;;;;;;6.07;5.50;;;15.50;57.00;16.40;102424.00;;;;5028526;28;20948;-49
2022/01/15 00:14:41;;;;;;;5.80;5.20;;;15.50;56.30;16.40;102436.00;;;;5048264;28;20192;-49
2022/01/15 00:17:14;;;;;;;5.87;5.37;;;15.50;56.40;16.40;102422.00;;;;5047315;28;20210;-48
2022/01/15 00:19:43;;;;;;;6.07;5.47;;;15.40;56.30;16.40;102420.00;;;;5048359;28;20166;-47
2022/01/15 00:22:11;;;;;;;6.00;5.50;;;15.40;56.20;16.40;102421.00;;;;5047905;28;20166;-49
2022/01/15 00:24:37;;;;;;;6.10;5.60;;;15.40;56.30;16.40;102429.00;;;;5048183;28;20170;-48
2022/01/15 00:27:03;;;;;;;6.43;5.83;;;15.40;56.30;16.30;102427.00;;;;5051817;28;20220;-51
2022/01/15 00:29:30;;;;;;;5.80;5.30;;;15.40;56.40;16.30;102426.00;;;;5048370;28;20239;-49
2022/01/15 00:31:56;;;;;;;6.17;5.60;;;15.30;56.40;16.30;102420.00;;;;5047704;28;20174;-49
2022/01/15 00:34:22;;;;;;;5.90;5.40;;;15.30;56.40;16.30;102428.00;;;;5047416;28;20224;-47
2022/01/15 00:36:47;;;;;;;5.03;4.63;;;15.30;56.30;16.30;102421.00;;;;5047437;28;20194;-49
2022/01/15 00:39:13;;;;;;;5.70;5.30;;;15.30;56.30;16.30;102427.00;;;;5046337;28;20583;-50
2022/01/15 00:41:39;;;;;;;5.93;5.43;;;15.30;56.10;16.30;102426.00;;;;5047487;28;20181;-49
2022/01/15 00:44:05;;;;;;;5.53;5.03;;;15.30;56.20;16.30;102419.00;;;;5047337;28;20174;-47
2022/01/15 00:46:30;;;;;;;5.53;5.03;;;15.30;56.20;16.30;102419.00;;;;5047544;28;20201;-49
2022/01/15 00:48:56;;;;;;;5.60;5.10;;;15.30;56.20;16.30;102409.00;;;;5047473;28;20198;-48
2022/01/15 00:51:23;;;;;;;5.50;5.00;;;15.20;55.90;16.30;102413.00;;;;5046931;28;20181;-51
2022/01/15 00:53:49;;;;;;;5.33;4.87;;;15.20;56.20;16.30;102418.00;;;;5052568;28;20174;-48
2022/01/15 00:56:14;;;;;;;5.20;4.80;;;15.20;56.10;16.30;102410.00;;;;5051863;28;20200;-48
2022/01/15 00:58:40;;;;;;;5.50;5.00;;;15.20;56.60;16.20;102411.00;;;;5046454;28;20182;-47
2022/01/15 01:01:06;;;;;;;5.30;4.90;;;15.20;56.30;16.20;102412.00;;;;5048282;28;20789;-49
2022/01/15 01:03:32;;;;;;;5.10;4.70;;;15.20;56.40;16.20;102409.00;;;;5047186;28;20166;-50
2022/01/15 01:05:57;;;;;;;5.17;4.60;;;15.20;56.50;16.20;102397.00;;;;5047495;28;20209;-48
2022/01/15 01:08:23;;;;;;;5.40;4.90;;;15.10;56.40;16.10;102403.00;;;;5047762;28;20220;-50
2022/01/15 01:10:53;;;;;;;5.23;4.83;;;15.20;56.50;16.10;102394.00;;;;5047663;28;20216;-47
2022/01/15 01:23:44;;;;;;;4.77;4.30;;;15.00;56.00;16.10;102386.00;;;;5047115;28;20248;-48
2022/01/15 01:26:23;;;;;;;4.87;4.47;;;15.00;56.00;16.10;102369.00;;;;5046836;28;20782;-49
2022/01/15 01:28:58;;;;;;;4.93;4.43;;;15.00;56.30;16.00;102367.00;;;;5047120;28;20194;-49
2022/01/15 01:31:32;;;;;;;5.00;4.53;;;15.00;56.00;16.00;102375.00;;;;5046989;28;20204;-46
2022/01/15 01:34:06;;;;;;;4.50;4.20;;;14.90;56.40;16.00;102357.00;;;;5046990;28;20178;-49
2022/01/15 01:36:44;;;;;;;4.73;4.43;;;14.90;56.10;16.00;102375.00;;;;5046690;28;20198;-49
2022/01/15 01:39:15;;;;;;;4.53;4.13;;;14.90;56.10;16.00;102367.00;;;;5046859;28;20146;-49
2022/01/15 01:41:42;;;;;;;4.70;4.30;;;14.80;56.50;15.90;102355.00;;;;5046551;28;20183;-49
2022/01/15 01:44:15;;;;;;;4.40;4.10;;;14.80;56.70;16.00;102355.00;;;;5048619;28;20174;-52
2022/01/15 01:46:52;;;;;;;4.80;4.40;;;14.90;56.50;16.00;102349.00;;;;5074379;28;20203;-51
2022/01/15 01:49:19;;;;;;;4.70;4.30;;;14.80;56.70;15.90;102352.00;;;;5049885;28;20170;-49
2022/01/15 01:51:45;;;;;;;4.40;4.10;;;14.80;56.40;15.90;102364.00;;;;5047631;28;20181;-49
2022/01/15 01:54:12;;;;;;;4.30;3.90;;;14.80;56.30;15.90;102352.00;;;;5049112;28;20201;-47
2022/01/15 01:56:38;;;;;;;4.83;4.33;;;14.70;56.90;15.90;102358.00;;;;5049981;28;20221;-48
2022/01/15 01:59:05;;;;;;;4.37;3.97;;;14.70;56.70;15.90;102354.00;;;;5052145;28;20198;-50
2022/01/15 02:01:31;;;;;;;4.33;4.03;;;14.70;56.60;15.80;102356.00;;;;5050574;28;20167;-51
2022/01/15 02:03:56;;;;;;;4.53;4.20;;;14.70;56.60;15.80;102358.00;;;;5050784;28;20201;-48
2022/01/15 02:06:22;;;;;;;4.40;4.00;;;14.70;56.40;15.80;102355.00;;;;5050140;28;20202;-48
2022/01/15 02:08:48;;;;;;;4.27;3.97;;;14.70;56.60;15.80;102352.00;;;;5050539;28;20202;-49
2022/01/15 02:11:14;;;;;;;4.20;3.80;;;14.70;56.60;15.80;102349.00;;;;5050344;28;20265;-46
2022/01/15 02:13:42;;;;;;;4.20;3.90;;;14.60;56.30;15.80;102350.00;;;;5050238;28;20253;-50
2022/01/15 02:16:08;;;;;;;4.37;3.97;;;14.70;56.60;15.80;102345.00;;;;5048931;28;20202;-49
2022/01/15 02:18:35;;;;;;;4.40;4.10;;;14.60;56.60;15.70;102341.00;;;;5050021;28;20209;-48
2022/01/15 02:23:43;;;;;;;3.90;3.60;;;14.60;57.20;15.70;102331.00;;;;5050390;28;20616;-47
2022/01/15 02:26:11;;;;;;;4.07;3.77;;;14.60;57.30;15.70;102330.00;;;;5050252;28;20263;-49
2022/01/15 02:28:40;;;;;;;4.20;3.90;;;14.60;57.00;15.70;102328.00;;;;5048655;28;20206;-48
2022/01/15 02:31:15;;;;;;;3.90;3.60;;;14.50;57.00;15.70;102333.00;;;;5049755;28;20169;-51
2022/01/15 02:33:42;;;;;;;4.30;3.90;;;14.50;57.60;15.60;102332.00;;;;5050049;28;20166;-48
2022/01/15 02:36:14;;;;;;;3.90;3.60;;;14.50;57.20;15.70;102323.00;;;;5049576;28;20862;-48
2022/01/15 02:38:40;;;;;;;4.00;3.70;;;14.50;57.40;15.70;102319.00;;;;5049855;28;20250;-50
2022/01/15 02:41:05;;;;;;;3.97;3.67;;;14.50;57.20;15.60;102330.00;;;;5048569;28;20590;-45
2022/01/15 02:43:32;;;;;;;4.20;3.90;;;14.50;57.10;15.60;102326.00;;;;5048570;28;20265;-48
2022/01/15 02:46:07;;;;;;;4.03;3.73;;;14.40;57.10;15.60;102315.00;;;;5049362;28;20202;-49
2022/01/15 02:48:33;;;;;;;4.17;3.87;;;14.40;57.10;15.50;102320.00;;;;5049456;28;20231;-49
2022/01/15 02:50:59;;;;;;;4.00;3.60;;;14.40;57.20;15.50;102319.00;;;;5049680;28;20401;-48
2022/01/15 02:53:24;;;;;;;4.23;3.93;;;14.30;57.10;15.50;102317.00;;;;5049589;28;20182;-49
2022/01/15 02:55:53;;;;;;;3.70;3.40;;;14.30;57.10;15.50;102305.00;;;;5049099;28;20198;-48
2022/01/15 02:58:20;;;;;;;4.00;3.70;;;14.30;57.00;15.50;102304.00;;;;5048103;28;20258;-52
2022/01/15 03:00:46;;;;;;;3.93;3.63;;;14.40;57.50;15.50;102315.00;;;;5054886;28;20255;-50
2022/01/15 03:03:12;;;;;;;3.80;3.50;;;14.30;57.10;15.50;102311.00;;;;5054872;28;20225;-51
2022/01/15 03:05:38;;;;;;;4.00;3.70;;;14.30;57.30;15.50;102308.00;;;;5055266;28;20206;-51
2022/01/15 03:08:03;;;;;;;3.60;3.30;;;14.30;57.00;15.40;102308.00;;;;5049558;28;20198;-49
2022/01/15 03:10:29;;;;;;;3.90;3.60;;;14.30;57.20;15.40;102305.00;;;;5051360;28;20186;-50
2022/01/15 03:12:57;;;;;;;3.70;3.40;;;14.30;57.10;15.40;102302.00;;;;5053630;28;20163;-51
2022/01/15 03:15:23;;;;;;;3.80;3.50;;;14.20;57.00;15.40;102299.00;;;;5050828;28;20806;-49
2022/01/15 03:17:49;;;;;;;3.50;3.20;;;14.20;57.00;15.40;102293.00;;;;5051596;28;20167;-49
2022/01/15 03:20:16;;;;;;;3.80;3.50;;;14.20;57.10;15.40;102284.00;;;;5050603;28;20181;-50
2022/01/15 03:22:42;;;;;;;3.80;3.50;;;14.20;57.20;15.30;102286.00;;;;5051071;28;20253;-50
2022/01/15 03:25:08;;;;;;;3.73;3.43;;;14.30;57.00;15.30;102288.00;;;;5051773;28;20208;-48
2022/01/15 03:27:34;;;;;;;3.80;3.50;;;14.30;56.80;15.40;102282.00;;;;5049904;28;20685;-48
2022/01/15 03:30:00;;;;;;;3.47;3.17;;;14.30;56.60;15.40;102279.00;;;;5049510;28;20167;-48
2022/01/15 03:32:26;;;;;;;3.60;3.30;;;14.30;56.60;15.30;102276.00;;;;5047543;28;20174;-52
2022/01/15 03:34:52;;;;;;;3.60;3.30;;;14.20;56.60;15.30;102269.00;;;;5048707;28;20170;-48
2022/01/15 03:37:18;;;;;;;3.80;3.50;;;14.20;56.50;15.30;102270.00;;;;5059587;28;20194;-51
2022/01/15 03:39:44;;;;;;;3.70;3.40;;;14.20;56.90;15.30;102276.00;;;;5071056;28;20257;-50
2022/01/15 03:42:13;;;;;;;3.40;3.20;;;14.30;56.50;15.30;102263.00;;;;5050784;28;20205;-49
2022/01/15 03:44:46;;;;;;;4.10;3.70;;;14.30;56.40;15.30;102262.00;;;;5050245;28;20713;-49
2022/01/15 03:47:12;;;;;;;3.67;3.37;;;14.20;56.40;15.40;102261.00;;;;5050901;28;20202;-50
2022/01/15 03:49:38;;;;;;;3.20;3.00;;;14.20;56.40;15.40;102262.00;;;;5050150;28;20182;-48
2022/01/15 03:52:05;;;;;;;3.30;3.10;;;14.20;56.40;15.30;102258.00;;;;5049433;28;20301;-51
2022/01/15 03:54:31;;;;;;;3.60;3.30;;;14.20;56.40;15.30;102256.00;;;;5048510;28;20178;-49
2022/01/15 03:56:57;;;;;;;3.67;3.37;;;14.20;56.30;15.30;102253.00;;;;5048066;28;20209;-51
2022/01/15 03:59:22;;;;;;;3.60;3.30;;;14.20;56.20;15.30;102251.00;;;;5048911;28;20162;-48
2022/01/15 04:01:49;;;;;;;3.80;3.50;;;14.20;56.20;15.30;102245.00;;;;5048817;28;20551;-50
2022/01/15 04:04:15;;;;;;;3.80;3.50;;;14.20;56.70;15.30;102244.00;;;;5048975;28;20189;-48
2022/01/15 04:06:41;;;;;;;3.43;3.13;;;14.10;56.20;15.30;102243.00;;;;5048551;28;20233;-51
2022/01/15 04:09:07;;;;;;;3.90;3.60;;;14.10;56.60;15.30;102229.00;;;;5048266;28;20740;-50
2022/01/15 04:11:34;;;;;;;3.63;3.33;;;14.10;56.60;15.30;102225.00;;;;5061353;28;20151;-54
2022/01/15 04:14:00;;;;;;;3.70;3.40;;;14.10;56.10;15.30;102225.00;;;;5073919;28;20358;-52
2022/01/15 04:16:28;;;;;;;3.60;3.30;;;14.10;56.30;15.30;102224.00;;;;5061883;28;20679;-48
2022/01/15 04:18:55;;;;;;;3.73;3.43;;;14.10;56.20;15.20;102222.00;;;;5047800;28;20679;-48
2022/01/15 04:21:21;;;;;;;3.53;3.27;;;14.10;56.10;15.20;102209.00;;;;5048011;28;20309;-48
2022/01/15 04:23:46;;;;;;;3.20;3.00;;;14.10;56.10;15.30;102213.00;;;;5048523;28;20179;-47
2022/01/15 04:26:12;;;;;;;3.37;3.17;;;14.00;56.30;15.20;102213.00;;;;5047556;28;20558;-47
2022/01/15 04:28:38;;;;;;;4.10;3.30;;;14.00;56.40;15.20;102222.00;;;;5046941;28;20198;-49
2022/01/15 04:31:06;;;;;;;3.17;2.97;;;14.00;56.80;15.20;102224.00;;;;5047816;28;20689;-48
2022/01/15 04:33:36;;;;;;;6.17;3.30;;;14.00;57.20;15.10;102210.00;;;;5047207;28;20773;-47
2022/01/15 04:36:03;;;;;;;4.60;3.40;;;14.00;57.00;15.10;102202.00;;;;5047282;28;20190;-50
2022/01/15 04:38:30;;;;;;;6.03;3.47;;;14.10;56.80;15.20;102209.00;;;;5047872;28;20208;-50
2022/01/15 04:40:56;;;;;;;3.93;3.27;;;14.30;56.60;15.30;102202.00;;;;5047420;28;20170;-49
2022/01/15 04:43:21;;;;;;;6.73;3.53;;;14.50;56.40;15.30;102205.00;;;;5047566;28;20205;-48
2022/01/15 04:45:47;;;;;;;4.27;3.40;;;14.80;56.00;15.40;102205.00;;;;5046930;28;20201;-49
2022/01/15 04:48:13;;;;;;;4.50;3.50;;;15.10;55.50;15.60;102197.00;;;;5047801;28;20590;-50
2022/01/15 04:50:39;;;;;;;6.17;3.70;;;15.40;55.10;15.70;102192.00;;;;5047572;28;20174;-47
2022/01/15 04:53:04;;;;;;;6.17;3.53;;;15.70;54.80;15.90;102189.00;;;;5047759;28;20174;-48
2022/01/15 04:55:30;;;;;;;3.43;3.13;;;16.00;54.30;16.10;102193.00;;;;5046326;28;20198;-48
2022/01/15 04:57:56;;;;;;;3.77;3.10;;;16.40;53.80;16.30;102183.00;;;;5047303;28;20193;-48
2022/01/15 05:00:23;;;;;;;3.50;3.17;;;16.60;53.40;16.50;102192.00;;;;5047078;28;20205;-49
2022/01/15 05:02:48;;;;;;;3.50;3.20;;;16.80;53.30;16.70;102191.00;;;;5047320;28;20166;-50
2022/01/15 05:05:14;;;;;;;3.60;3.30;;;16.90;53.10;16.80;102117.00;;;;5046245;28;20554;-47
2022/01/15 05:07:41;;;;;;;3.67;3.10;;;17.00;53.00;17.00;102199.00;;;;5047485;28;20202;-51
2022/01/15 05:10:07;;;;;;;3.50;3.13;;;17.10;53.00;17.10;102200.00;;;;5046117;28;20177;-49
2022/01/15 05:12:42;;;;;;;3.40;3.10;;;17.20;53.10;17.10;102196.00;;;;5047182;28;20198;-47
2022/01/15 05:15:09;;;;;;;3.13;2.83;;;17.30;53.00;17.30;102190.00;;;;5043069;28;20394;-49
2022/01/15 05:17:35;;;;;;;3.37;2.90;;;17.30;53.00;17.30;102181.00;;;;5032890;28;20182;-50
2022/01/15 05:20:01;;;;;;;4.00;3.33;;;17.30;53.10;17.40;102191.00;;;;5029133;28;20163;-49
2022/01/15 05:22:26;;;;;;;4.07;3.17;;;17.30;53.60;17.50;102204.00;;;;5031962;28;20202;-50
2022/01/15 05:24:52;;;;;;;3.80;3.10;;;17.30;53.40;17.50;102196.00;;;;5026709;28;20182;-50
2022/01/15 05:27:18;;;;;;;3.13;2.93;;;17.30;53.50;17.60;102188.00;;;;5027837;28;20207;-54
2022/01/15 05:29:45;;;;;;;4.10;3.10;;;17.30;53.80;17.60;102185.00;;;;5038828;28;20171;-50
2022/01/15 05:32:10;;;;;;;7.17;3.17;;;17.20;53.70;17.60;102181.00;;;;5052283;28;20179;-49
2022/01/15 05:34:36;;;;;;;5.50;3.10;;;17.20;53.90;17.60;102185.00;;;;5033417;28;20224;-50
2022/01/15 05:37:02;;;;;;;3.30;3.00;;;17.20;54.10;17.60;102188.00;;;;5032456;28;20560;-47
2022/01/15 05:39:28;;;;;;;5.47;3.23;;;17.10;54.20;17.60;102189.00;;;;5015747;28;20594;-51
2022/01/15 05:41:54;;;;;;;6.30;3.03;;;17.10;54.30;17.60;102191.00;;;;5032726;28;20171;-50
2022/01/15 05:44:20;;;;;;;5.33;2.93;;;17.00;54.30;17.60;102184.00;;;;5031131;28;20198;-48
2022/01/15 05:46:46;;;;;;;6.37;3.20;;;17.00;54.50;17.60;102184.00;;;;5030479;28;20213;-49
2022/01/15 05:49:13;;;;;;;4.57;3.10;;;17.00;54.60;17.60;102185.00;;;;5030453;28;20195;-48
2022/01/15 05:51:39;;;;;;;5.97;3.30;;;17.00;54.70;17.60;102184.00;;;;5029716;28;20713;-49
2022/01/15 05:54:05;;;;;;;7.83;3.20;;;16.90;54.80;17.60;102189.00;;;;5030601;28;20262;-49
2022/01/15 05:56:30;;;;;;;6.37;3.10;;;16.90;54.90;17.50;102172.00;;;;5030381;28;20236;-50
2022/01/15 05:58:56;;;;;;;5.47;3.27;;;16.80;55.00;17.50;102184.00;;;;5029085;28;20213;-48
2022/01/15 06:01:22;;;;;;;5.03;3.20;;;16.80;55.10;17.50;102184.00;;;;5029982;28;20189;-49
2022/01/15 06:03:48;;;;;;;5.17;3.30;;;16.80;55.10;17.50;102187.00;;;;5029922;28;20174;-49
2022/01/15 06:06:13;;;;;;;4.93;3.20;;;16.70;55.20;17.50;102177.00;;;;5030097;28;20293;-49
2022/01/15 06:08:39;;;;;;;5.77;3.20;;;16.70;55.20;17.40;102183.00;;;;5030144;28;20194;-49
2022/01/15 06:11:05;;;;;;;5.70;3.20;;;16.60;55.30;17.40;102181.00;;;;5029715;28;20182;-49
2022/01/15 06:13:30;;;;;;;4.00;3.07;;;16.60;55.40;17.40;102179.00;;;;5042473;28;20166;-48
2022/01/15 06:15:56;;;;;;;5.03;3.20;;;16.60;55.40;17.40;102183.00;;;;5050200;28;20256;-47
2022/01/15 06:18:22;;;;;;;4.37;3.33;;;16.50;55.40;17.40;102180.00;;;;5050245;28;20174;-50
2022/01/15 06:20:47;;;;;;;6.27;3.07;;;16.40;55.40;17.30;102178.00;;;;5050335;28;20170;-48
2022/01/15 06:23:13;;;;;;;5.53;3.20;;;16.40;55.50;17.20;102176.00;;;;5049513;28;20845;-50
2022/01/15 06:25:39;;;;;;;4.50;2.90;;;16.40;55.60;17.20;102182.00;;;;5049944;28;20943;-49
2022/01/15 06:28:04;;;;;;;3.73;3.20;;;16.30;55.60;17.20;102178.00;;;;5049890;28;20585;-50
2022/01/15 06:30:30;;;;;;;3.63;2.93;;;16.30;55.60;17.20;102184.00;;;;5049505;28;20163;-49
2022/01/15 06:32:56;;;;;;;3.40;3.10;;;16.30;55.70;17.20;102179.00;;;;5049815;28;20159;-50
2022/01/15 06:35:22;;;;;;;6.50;3.20;;;16.30;55.70;17.20;102166.00;;;;5049428;28;20166;-51
2022/01/15 06:37:47;;;;;;;3.30;3.00;;;16.20;55.70;17.10;102167.00;;;;5049594;28;20178;-50
2022/01/15 06:40:15;;;;;;;3.57;3.10;;;16.20;55.80;17.10;102159.00;;;;5049648;28;20174;-48
2022/01/15 06:42:41;;;;;;;4.00;2.90;;;16.10;55.60;17.10;102168.00;;;;5047053;28;20178;-48
2022/01/15 06:45:07;;;;;;;4.57;3.00;;;16.10;55.70;17.00;102159.00;;;;5049188;28;20178;-47
2022/01/15 06:47:33;;;;;;;3.27;2.97;;;16.00;55.50;17.00;102156.00;;;;5048322;28;20833;-47
2022/01/15 06:50:04;;;;;;;4.37;3.20;;;16.00;55.60;17.00;102166.00;;;;5049352;28;20167;-49
2022/01/15 06:52:31;;;;;;;4.13;2.67;;;16.00;55.70;17.00;102156.00;;;;5049805;28;20154;-50
2022/01/15 06:54:57;;;;;;;5.13;3.30;;;15.90;55.80;16.90;102157.00;;;;5049492;28;20640;-49
2022/01/15 06:57:23;;;;;;;4.67;3.20;;;15.90;55.80;16.90;102155.00;;;;5049120;28;20280;-48
2022/01/15 06:59:48;;;;;;;3.97;3.23;;;15.90;55.80;16.90;102156.00;;;;5048271;28;20204;-49
2022/01/15 07:02:14;;;;;;;3.63;3.10;;;15.90;55.90;16.90;102164.00;;;;5049057;28;20175;-51
2022/01/15 07:04:40;;;;;;;3.47;3.17;;;15.80;55.90;16.80;102154.00;;;;5049139;28;20166;-48
2022/01/15 07:07:05;;;;;;;3.10;2.80;;;15.80;55.90;16.80;102154.00;;;;5049086;28;20256;-48
2022/01/15 07:09:32;;;;;;;4.07;3.23;;;15.80;56.00;16.80;102150.00;;;;5049244;28;20166;-47
2022/01/15 07:11:58;;;;;;;4.63;3.17;;;15.80;56.00;16.80;102154.00;;;;5048652;28;20232;-50
2022/01/15 07:14:24;;;;;;;2.93;2.70;;;15.70;56.00;16.70;102150.00;;;;5048698;28;20170;-50
2022/01/15 07:16:50;;;;;;;3.50;3.20;;;15.70;56.00;16.70;102143.00;;;;5048352;28;20186;-50
2022/01/15 07:19:15;;;;;;;3.50;3.20;;;15.60;55.90;16.70;102145.00;;;;5048625;28;20208;-48
2022/01/15 07:21:41;;;;;;;3.97;3.10;;;15.60;55.90;16.60;102142.00;;;;5051832;28;20179;-50
2022/01/15 07:24:07;;;;;;;3.27;2.97;;;15.60;56.00;16.60;102149.00;;;;5076099;28;20200;-52
2022/01/15 07:26:32;;;;;;;3.10;2.90;;;15.60;56.00;16.60;102142.00;;;;5053363;28;20198;-48
2022/01/15 07:28:58;;;;;;;3.10;2.90;;;15.60;56.00;16.60;102143.00;;;;5051992;28;20210;-50
2022/01/15 07:31:24;;;;;;;2.93;2.73;;;15.50;56.00;16.50;102138.00;;;;5054799;28;20174;-50
2022/01/15 07:33:50;;;;;;;3.53;3.00;;;15.50;56.00;16.50;102140.00;;;;5053450;28;20178;-48
2022/01/15 07:36:15;;;;;;;3.50;3.20;;;15.50;56.10;16.50;102137.00;;;;5053506;28;20190;-47
2022/01/15 07:38:41;;;;;;;3.20;2.90;;;15.40;56.00;16.50;102143.00;;;;5049178;28;20656;-52
2022/01/15 07:41:11;;;;;;;3.20;2.90;;;15.40;56.00;16.50;102136.00;;;;5053364;28;20209;-51
2022/01/15 07:43:37;;;;;;;3.00;2.80;;;15.40;56.10;16.40;102132.00;;;;5051316;28;20171;-50
2022/01/15 07:46:03;;;;;;;3.30;3.00;;;15.40;56.20;16.40;102134.00;;;;5049344;28;20305;-49
2022/01/15 07:48:28;;;;;;;3.57;3.27;;;15.40;56.20;16.40;102132.00;;;;5049591;28;20560;-47
2022/01/15 07:50:54;;;;;;;3.43;2.90;;;15.30;56.10;16.30;102132.00;;;;5048712;28;20259;-49
2022/01/15 07:53:20;;;;;;;3.10;2.90;;;15.30;56.10;16.30;102129.00;;;;5048301;28;20170;-49
2022/01/15 07:55:46;;;;;;;3.47;3.17;;;15.30;56.10;16.30;102136.00;;;;5047948;28;20202;-50
2022/01/15 07:58:12;;;;;;;3.47;3.17;;;15.20;56.20;16.30;102138.00;;;;5048265;28;20248;-49
2022/01/15 08:00:37;;;;;;;3.27;3.00;;;15.20;56.10;16.30;102134.00;;;;5048499;28;20584;-49
2022/01/15 08:03:03;;;;;;;3.00;2.80;;;15.30;56.30;16.20;102140.00;;;;5047993;28;20179;-49
2022/01/15 08:05:29;;;;;;;3.13;2.93;;;15.20;56.30;16.20;102125.00;;;;5046420;28;20201;-49
2022/01/15 08:07:55;;;;;;;3.13;2.83;;;15.20;56.20;16.20;102128.00;;;;5048091;28;20202;-49
2022/01/15 08:10:20;;;;;;;3.20;2.83;;;15.10;56.30;16.20;102134.00;;;;5048201;28;20174;-50
2022/01/15 08:12:48;;;;;;;2.90;2.70;;;15.10;56.20;16.20;102143.00;;;;5047822;28;20171;-49
2022/01/15 08:15:15;;;;;;;3.33;3.03;;;15.10;56.30;16.10;102128.00;;;;5047520;28;20722;-48
2022/01/15 08:17:41;;;;;;;3.30;3.00;;;15.10;56.30;16.10;102130.00;;;;5047664;28;20201;-47
2022/01/15 08:20:07;;;;;;;3.10;2.90;;;15.00;56.30;16.10;102126.00;;;;5053352;28;20196;-50
2022/01/15 08:22:33;;;;;;;3.13;2.90;;;15.00;56.40;16.10;102133.00;;;;5050349;28;20186;-49
2022/01/15 08:24:59;;;;;;;3.07;2.83;;;15.00;56.30;16.00;102108.00;;;;5048115;28;20175;-49
2022/01/15 08:27:24;;;;;;;3.07;2.87;;;15.00;56.40;16.00;102116.00;;;;5047670;28;20202;-47
2022/01/15 08:29:50;;;;;;;3.20;3.00;;;15.00;56.40;16.00;102111.00;;;;5067918;28;20178;-52
2022/01/15 08:32:16;;;;;;;3.20;2.90;;;15.00;56.40;16.00;102108.00;;;;5070065;28;20300;-51
2022/01/15 08:34:43;;;;;;;2.83;2.63;;;14.90;56.50;16.00;102105.00;;;;5049382;28;20169;-48
2022/01/15 08:37:09;;;;;;;3.10;2.80;;;14.90;56.30;15.90;102110.00;;;;5047713;28;20218;-49
2022/01/15 08:39:36;;;;;;;3.17;2.97;;;14.90;56.50;15.90;102112.00;;;;5047927;28;20607;-48
2022/01/15 08:42:03;;;;;;;3.23;3.00;;;14.80;56.40;15.90;102114.00;;;;5046176;28;20169;-49
2022/01/15 08:44:28;;;;;;;3.00;2.80;;;14.80;56.40;15.90;102111.00;;;;5046271;28;20261;-51
2022/01/15 08:46:54;;;;;;;2.97;2.77;;;14.80;56.70;15.90;102128.00;;;;5047343;28;20825;-51
2022/01/15 08:49:20;;;;;;;2.90;2.60;;;14.80;56.70;15.90;102120.00;;;;5047724;28;20206;-50
2022/01/15 08:51:46;;;;;;;2.83;2.63;;;14.70;56.60;15.80;102111.00;;;;5047448;28;20169;-47
2022/01/15 08:54:11;;;;;;;2.90;2.70;;;14.70;56.60;15.80;102110.00;;;;5046438;28;20723;-48
2022/01/15 08:56:37;;;;;;;2.90;2.70;;;14.70;56.60;15.80;102114.00;;;;5047502;28;20217;-48
2022/01/15 08:59:03;;;;;;;2.80;2.60;;;14.70;56.60;15.80;102120.00;;;;5046111;28;20175;-49
2022/01/15 09:01:30;;;;;;;2.80;2.60;;;14.70;56.60;15.70;102126.00;;;;5046063;28;20174;-49
2022/01/15 09:03:57;;;;;;;2.80;2.60;;;14.70;56.60;15.70;102126.00;;;;5046462;28;20170;-49
2022/01/15 09:06:23;;;;;;;2.70;2.50;;;14.70;56.60;15.70;102105.00;;;;5044884;28;20209;-49
2022/01/15 09:08:48;;;;;;;2.97;2.77;;;14.70;56.60;15.70;102105.00;;;;5045759;28;20198;-50
2022/01/15 09:11:14;;;;;;;2.80;2.60;;;14.70;57.00;15.70;102106.00;;;;5047027;28;20778;-47
2022/01/15 09:13:41;;;;;;;3.57;2.80;;;14.70;57.30;15.70;102107.00;;;;5046831;28;20701;-50
2022/01/15 09:16:06;;;;;;;2.90;2.60;;;14.70;57.40;15.70;102109.00;;;;5067498;28;20173;-57
2022/01/15 09:18:34;;;;;;;3.60;2.50;;;14.70;57.60;15.80;102113.00;;;;5059243;28;20178;-51
2022/01/15 09:20:59;;;;;;;3.10;2.50;;;14.70;57.70;15.80;102119.00;;;;5049240;28;20174;-50
2022/01/15 09:23:25;;;;;;;4.33;2.53;;;14.70;57.80;15.70;102126.00;;;;5048918;28;20208;-50
2022/01/15 09:25:52;;;;;;;3.70;2.60;;;14.70;57.60;15.80;102115.00;;;;5035618;28;20214;-47
2022/01/15 09:31:03;;;;;;;5.23;2.50;;;14.70;57.80;15.70;102116.00;;;;5028740;28;20228;-48
2022/01/15 09:33:29;;;;;;;2.77;2.57;;;14.60;57.50;15.70;102116.00;;;;5028706;28;20175;-48
2022/01/15 09:35:55;;;;;;;4.17;2.67;;;14.60;58.00;15.70;102104.00;;;;5029082;28;20221;-50
2022/01/15 09:38:21;;;;;;;4.23;2.57;;;14.60;57.50;15.70;102106.00;;;;5029820;28;20179;-50
2022/01/15 09:40:47;;;;;;;5.03;2.50;;;14.50;57.40;15.60;102099.00;;;;5029070;28;20676;-48
2022/01/15 09:43:13;;;;;;;5.07;2.70;;;14.50;57.30;15.60;102099.00;;;;5028439;28;20171;-50
2022/01/15 09:45:40;;;;;;;2.97;2.57;;;14.50;57.70;15.60;102100.00;;;;5027615;28;20197;-49
2022/01/15 09:48:06;;;;;;;3.20;2.30;;;14.50;57.40;15.60;102099.00;;;;5026955;28;20199;-48
2022/01/15 09:50:34;;;;;;;2.70;2.50;;;14.40;57.30;15.60;102098.00;;;;5030542;28;20167;-49
2022/01/15 09:53:00;;;;;;;3.33;2.33;;;14.40;57.10;15.50;102089.00;;;;5027563;28;20171;-49
2022/01/15 09:55:26;;;;;;;3.63;2.40;;;14.40;57.10;15.50;102088.00;;;;5019821;28;20238;-51
2022/01/15 09:57:52;;;;;;;2.60;2.40;;;14.40;57.10;15.50;102088.00;;;;5008229;28;20433;-48
2022/01/15 10:00:19;;;;;;;2.80;2.60;;;14.40;57.00;15.50;102085.00;;;;5008325;28;20199;-49
2022/01/15 10:02:49;;;;;;;2.70;2.50;;;14.40;56.90;15.50;102084.00;;;;5007941;28;20613;-50
2022/01/15 10:05:15;;;;;;;2.83;2.37;;;14.30;56.90;15.50;102077.00;;;;5007761;28;20282;-48
2022/01/15 10:08:02;;;;;;;3.50;2.50;;;14.30;56.80;15.50;102074.00;;;;5007639;28;20294;-48
2022/01/15 10:10:33;;;;;;;2.50;2.30;;;14.30;56.70;15.40;102070.00;;;;5008020;28;20176;-49
2022/01/15 10:13:16;;;;;;;2.63;2.43;;;14.30;57.40;15.40;102074.00;;;;5007026;28;20645;-51
2022/01/15 10:15:46;;;;;;;4.73;2.57;;;14.30;56.70;15.40;102073.00;;;;5008276;28;20195;-47
2022/01/15 10:18:24;;;;;;;2.77;2.40;;;14.30;56.70;15.40;102074.00;;;;5010454;28;20196;-50
2022/01/15 10:20:51;;;;;;;2.70;2.50;;;14.30;57.00;15.40;102069.00;;;;5011096;28;20171;-51
2022/01/15 10:23:18;;;;;;;5.57;2.70;;;14.20;56.70;15.10;102064.00;;;;5011783;28;20179;-49
2022/01/15 10:25:44;;;;;;;3.50;2.60;;;14.30;57.00;15.40;101985.00;;;;5012355;28;20199;-50
2022/01/15 10:28:09;;;;;;;9.47;2.73;;;14.40;56.80;15.40;102061.00;;;;5011715;28;20218;-48
2022/01/15 10:30:35;;;;;;;11.77;2.67;;;14.60;56.60;15.50;102064.00;;;;5014618;28;20262;-49
2022/01/15 10:33:02;;;;;;;6.73;2.60;;;14.80;56.70;15.60;102061.00;;;;5024108;28;20258;-49
2022/01/15 10:35:35;;;;;;;6.63;2.47;;;15.10;56.40;15.70;102052.00;;;;5031611;28;20770;-46
2022/01/15 10:38:04;;;;;;;5.50;2.57;;;15.40;55.90;15.90;102057.00;;;;5031662;28;20163;-48
2022/01/15 10:40:50;;;;;;;6.57;2.40;;;15.70;55.30;16.10;102046.00;;;;5030844;28;20179;-46
2022/01/15 10:43:18;;;;;;;7.93;2.40;;;16.10;54.80;16.30;102041.00;;;;5031587;28;20183;-47
2022/01/15 10:45:55;;;;;;;4.67;2.30;;;16.50;54.10;16.50;102037.00;;;;5043253;28;20210;-47
2022/01/15 10:48:26;;;;;;;4.80;2.43;;;16.80;53.70;16.70;102052.00;;;;5049501;28;20197;-47
2022/01/15 10:51:07;;;;;;;6.43;2.70;;;16.90;53.50;16.90;102044.00;;;;5050644;28;20209;-47
2022/01/15 10:53:37;;;;;;;7.80;2.60;;;17.10;53.40;17.00;102032.00;;;;5049624;28;20636;-46
2022/01/15 10:56:05;;;;;;;4.23;2.20;;;17.20;53.30;17.10;102035.00;;;;5055245;28;20254;-48
2022/01/15 10:58:30;;;;;;;4.73;2.33;;;17.30;53.50;17.30;102028.00;;;;5050650;28;20182;-47
2022/01/15 11:00:56;;;;;;;3.03;2.30;;;17.30;53.50;17.40;102029.00;;;;5050273;28;20243;-47
2022/01/15 11:03:22;;;;;;;4.03;2.23;;;17.30;53.60;17.40;102028.00;;;;5050932;28;20201;-48